sensor_id;sensor_type;location;lat;lon;timestamp;P1;durP1;ratioP1;P2;durP2;ratioP2
35699;SDS011;21818;51.078;12.108;2023-06-22T00:01:57;10.23;;;5.78;;
35699;SDS011;21818;51.078;12.108;2023-06-22T00:04:23;10.25;;;6.68;;
35699;SDS011;21818;51.078;12.108;2023-06-22T00:06:49;12.48;;;7.15;;
35699;SDS011;21818;51.078;12.108;2023-06-22T00:09:14;16.27;;;6.70;;
35699;SDS011;21818;51.078;12.108;2023-06-22T00:11:40;17.85;;;6.93;;
35699;SDS011;21818;51.078;12.108;2023-06-22T00:14:06;18.55;;;6.95;;
35699;SDS011;21818;51.078;12.108;2023-06-22T00:16:31;13.57;;;7.00;;
35699;SDS011;21818;51.078;12.108;2023-06-22T00:18:57;19.55;;;6.70;;
35699;SDS011;21818;51.078;12.108;2023-06-22T00:21:25;18.27;;;6.32;;
35699;SDS011;21818;51.078;12.108;2023-06-22T00:23:51;17.15;;;7.05;;
35699;SDS011;21818;51.078;12.108;2023-06-22T00:26:17;17.20;;;7.07;;
35699;SDS011;21818;51.078;12.108;2023-06-22T00:28:43;20.67;;;6.88;;
35699;SDS011;21818;51.078;12.108;2023-06-22T00:31:08;21.73;;;7.10;;
35699;SDS011;21818;51.078;12.108;2023-06-22T00:33:34;13.40;;;5.88;;
35699;SDS011;21818;51.078;12.108;2023-06-22T00:36:00;13.93;;;6.75;;
35699;SDS011;21818;51.078;12.108;2023-06-22T00:38:26;7.88;;;6.03;;
35699;SDS011;21818;51.078;12.108;2023-06-22T00:40:51;15.95;;;6.65;;
35699;SDS011;21818;51.078;12.108;2023-06-22T00:43:17;11.40;;;6.18;;
35699;SDS011;21818;51.078;12.108;2023-06-22T00:45:43;12.70;;;5.97;;
35699;SDS011;21818;51.078;12.108;2023-06-22T00:48:08;12.10;;;7.05;;
35699;SDS011;21818;51.078;12.108;2023-06-22T00:50:34;15.18;;;6.78;;
35699;SDS011;21818;51.078;12.108;2023-06-22T00:53:03;9.48;;;6.03;;
35699;SDS011;21818;51.078;12.108;2023-06-22T00:55:45;11.18;;;6.18;;
35699;SDS011;21818;51.078;12.108;2023-06-22T00:58:12;13.80;;;6.78;;
35699;SDS011;21818;51.078;12.108;2023-06-22T01:00:40;12.27;;;7.00;;
35699;SDS011;21818;51.078;12.108;2023-06-22T01:03:06;16.52;;;6.47;;
35699;SDS011;21818;51.078;12.108;2023-06-22T01:05:35;14.57;;;6.38;;
35699;SDS011;21818;51.078;12.108;2023-06-22T01:11:09;9.30;;;6.68;;
35699;SDS011;21818;51.078;12.108;2023-06-22T01:16:23;12.20;;;7.25;;
35699;SDS011;21818;51.078;12.108;2023-06-22T01:18:57;13.27;;;7.55;;
35699;SDS011;21818;51.078;12.108;2023-06-22T01:21:31;15.60;;;7.03;;
35699;SDS011;21818;51.078;12.108;2023-06-22T01:26:59;15.30;;;7.47;;
35699;SDS011;21818;51.078;12.108;2023-06-22T01:29:46;19.73;;;7.30;;
35699;SDS011;21818;51.078;12.108;2023-06-22T01:32:16;16.83;;;6.83;;
35699;SDS011;21818;51.078;12.108;2023-06-22T01:34:43;17.98;;;7.25;;
35699;SDS011;21818;51.078;12.108;2023-06-22T01:37:11;13.63;;;7.20;;
35699;SDS011;21818;51.078;12.108;2023-06-22T01:39:37;10.52;;;7.03;;
35699;SDS011;21818;51.078;12.108;2023-06-22T01:42:03;11.70;;;7.95;;
35699;SDS011;21818;51.078;12.108;2023-06-22T01:44:30;10.05;;;6.72;;
35699;SDS011;21818;51.078;12.108;2023-06-22T01:46:56;12.02;;;7.20;;
35699;SDS011;21818;51.078;12.108;2023-06-22T01:49:22;11.55;;;7.63;;
35699;SDS011;21818;51.078;12.108;2023-06-22T01:51:48;13.02;;;7.00;;
35699;SDS011;21818;51.078;12.108;2023-06-22T01:54:13;12.93;;;7.13;;
35699;SDS011;21818;51.078;12.108;2023-06-22T01:56:39;13.23;;;7.00;;
35699;SDS011;21818;51.078;12.108;2023-06-22T02:02:15;13.55;;;7.45;;
35699;SDS011;21818;51.078;12.108;2023-06-22T02:04:46;14.68;;;7.05;;
35699;SDS011;21818;51.078;12.108;2023-06-22T02:07:17;11.13;;;7.60;;
35699;SDS011;21818;51.078;12.108;2023-06-22T02:09:45;12.35;;;7.25;;
35699;SDS011;21818;51.078;12.108;2023-06-22T02:12:13;13.73;;;6.75;;
35699;SDS011;21818;51.078;12.108;2023-06-22T02:14:43;13.23;;;7.72;;
35699;SDS011;21818;51.078;12.108;2023-06-22T02:17:11;14.32;;;7.63;;
35699;SDS011;21818;51.078;12.108;2023-06-22T02:19:37;14.25;;;8.10;;
35699;SDS011;21818;51.078;12.108;2023-06-22T02:22:04;11.43;;;6.90;;
35699;SDS011;21818;51.078;12.108;2023-06-22T02:24:30;11.65;;;7.00;;
35699;SDS011;21818;51.078;12.108;2023-06-22T02:27:00;14.60;;;7.28;;
35699;SDS011;21818;51.078;12.108;2023-06-22T02:29:26;17.05;;;7.25;;
35699;SDS011;21818;51.078;12.108;2023-06-22T02:31:53;23.27;;;6.65;;
35699;SDS011;21818;51.078;12.108;2023-06-22T02:34:19;31.45;;;9.40;;
35699;SDS011;21818;51.078;12.108;2023-06-22T02:36:45;26.73;;;8.63;;
35699;SDS011;21818;51.078;12.108;2023-06-22T02:41:49;21.20;;;7.85;;
35699;SDS011;21818;51.078;12.108;2023-06-22T02:44:15;16.27;;;6.60;;
35699;SDS011;21818;51.078;12.108;2023-06-22T02:46:41;23.33;;;8.50;;
35699;SDS011;21818;51.078;12.108;2023-06-22T02:49:06;18.33;;;7.65;;
35699;SDS011;21818;51.078;12.108;2023-06-22T02:51:33;17.63;;;6.82;;
35699;SDS011;21818;51.078;12.108;2023-06-22T02:53:59;17.83;;;7.00;;
35699;SDS011;21818;51.078;12.108;2023-06-22T02:56:25;16.08;;;7.57;;
35699;SDS011;21818;51.078;12.108;2023-06-22T02:58:51;19.20;;;7.43;;
35699;SDS011;21818;51.078;12.108;2023-06-22T03:01:17;19.48;;;8.02;;
35699;SDS011;21818;51.078;12.108;2023-06-22T03:03:49;12.07;;;7.68;;
35699;SDS011;21818;51.078;12.108;2023-06-22T03:06:15;24.38;;;9.02;;
35699;SDS011;21818;51.078;12.108;2023-06-22T03:08:40;23.48;;;7.35;;
35699;SDS011;21818;51.078;12.108;2023-06-22T03:11:06;24.65;;;8.70;;
35699;SDS011;21818;51.078;12.108;2023-06-22T03:13:33;14.35;;;7.68;;
35699;SDS011;21818;51.078;12.108;2023-06-22T03:15:58;13.90;;;7.40;;
35699;SDS011;21818;51.078;12.108;2023-06-22T03:18:24;15.68;;;7.32;;
35699;SDS011;21818;51.078;12.108;2023-06-22T03:20:49;20.65;;;7.43;;
35699;SDS011;21818;51.078;12.108;2023-06-22T03:23:15;14.98;;;8.20;;
35699;SDS011;21818;51.078;12.108;2023-06-22T03:25:41;14.48;;;7.47;;
35699;SDS011;21818;51.078;12.108;2023-06-22T03:28:09;16.45;;;7.30;;
35699;SDS011;21818;51.078;12.108;2023-06-22T03:30:35;15.63;;;7.50;;
35699;SDS011;21818;51.078;12.108;2023-06-22T03:33:00;11.95;;;7.68;;
35699;SDS011;21818;51.078;12.108;2023-06-22T03:35:26;16.17;;;8.85;;
35699;SDS011;21818;51.078;12.108;2023-06-22T03:37:51;12.40;;;7.15;;
35699;SDS011;21818;51.078;12.108;2023-06-22T03:40:17;17.10;;;7.90;;
35699;SDS011;21818;51.078;12.108;2023-06-22T03:42:43;14.48;;;6.95;;
35699;SDS011;21818;51.078;12.108;2023-06-22T03:45:08;16.05;;;8.52;;
35699;SDS011;21818;51.078;12.108;2023-06-22T03:47:34;21.95;;;8.85;;
35699;SDS011;21818;51.078;12.108;2023-06-22T03:50:00;18.15;;;7.55;;
35699;SDS011;21818;51.078;12.108;2023-06-22T03:52:28;17.33;;;7.80;;
35699;SDS011;21818;51.078;12.108;2023-06-22T03:54:54;16.73;;;8.20;;
35699;SDS011;21818;51.078;12.108;2023-06-22T03:57:19;15.98;;;7.90;;
35699;SDS011;21818;51.078;12.108;2023-06-22T03:59:45;17.65;;;7.22;;
35699;SDS011;21818;51.078;12.108;2023-06-22T04:02:10;23.00;;;9.15;;
35699;SDS011;21818;51.078;12.108;2023-06-22T04:04:36;16.85;;;8.27;;
35699;SDS011;21818;51.078;12.108;2023-06-22T04:07:03;21.40;;;10.25;;
35699;SDS011;21818;51.078;12.108;2023-06-22T04:09:29;17.48;;;9.40;;
35699;SDS011;21818;51.078;12.108;2023-06-22T04:11:55;24.25;;;10.25;;
35699;SDS011;21818;51.078;12.108;2023-06-22T04:14:20;18.38;;;9.57;;
35699;SDS011;21818;51.078;12.108;2023-06-22T04:16:46;20.65;;;10.02;;
35699;SDS011;21818;51.078;12.108;2023-06-22T04:19:11;22.48;;;9.50;;
35699;SDS011;21818;51.078;12.108;2023-06-22T04:21:41;18.98;;;9.65;;
35699;SDS011;21818;51.078;12.108;2023-06-22T04:24:07;24.45;;;9.65;;
35699;SDS011;21818;51.078;12.108;2023-06-22T04:26:33;21.30;;;8.98;;
35699;SDS011;21818;51.078;12.108;2023-06-22T04:29:01;17.73;;;8.23;;
35699;SDS011;21818;51.078;12.108;2023-06-22T04:31:30;22.77;;;9.15;;
35699;SDS011;21818;51.078;12.108;2023-06-22T04:34:01;29.52;;;9.68;;
35699;SDS011;21818;51.078;12.108;2023-06-22T04:36:40;21.73;;;9.20;;
35699;SDS011;21818;51.078;12.108;2023-06-22T04:39:07;19.40;;;9.30;;
35699;SDS011;21818;51.078;12.108;2023-06-22T04:41:34;17.33;;;9.75;;
35699;SDS011;21818;51.078;12.108;2023-06-22T04:44:11;20.50;;;8.57;;
35699;SDS011;21818;51.078;12.108;2023-06-22T04:46:53;19.13;;;9.57;;
35699;SDS011;21818;51.078;12.108;2023-06-22T04:49:24;19.08;;;9.73;;
35699;SDS011;21818;51.078;12.108;2023-06-22T04:51:57;16.10;;;9.48;;
35699;SDS011;21818;51.078;12.108;2023-06-22T04:54:26;25.65;;;10.77;;
35699;SDS011;21818;51.078;12.108;2023-06-22T04:56:52;23.77;;;11.60;;
35699;SDS011;21818;51.078;12.108;2023-06-22T04:59:23;18.10;;;11.50;;
35699;SDS011;21818;51.078;12.108;2023-06-22T05:01:56;20.27;;;11.93;;
35699;SDS011;21818;51.078;12.108;2023-06-22T05:04:23;17.70;;;12.38;;
35699;SDS011;21818;51.078;12.108;2023-06-22T05:06:52;21.15;;;13.32;;
35699;SDS011;21818;51.078;12.108;2023-06-22T05:09:19;22.30;;;12.50;;
35699;SDS011;21818;51.078;12.108;2023-06-22T05:11:45;21.48;;;13.35;;
35699;SDS011;21818;51.078;12.108;2023-06-22T05:14:11;22.08;;;13.32;;
35699;SDS011;21818;51.078;12.108;2023-06-22T05:16:37;20.75;;;14.13;;
35699;SDS011;21818;51.078;12.108;2023-06-22T05:19:03;19.15;;;13.63;;
35699;SDS011;21818;51.078;12.108;2023-06-22T05:21:29;26.67;;;11.50;;
35699;SDS011;21818;51.078;12.108;2023-06-22T05:23:56;30.40;;;9.70;;
35699;SDS011;21818;51.078;12.108;2023-06-22T05:26:25;33.88;;;8.75;;
35699;SDS011;21818;51.078;12.108;2023-06-22T05:28:51;20.92;;;8.25;;
35699;SDS011;21818;51.078;12.108;2023-06-22T05:31:17;23.35;;;8.57;;
35699;SDS011;21818;51.078;12.108;2023-06-22T05:33:44;21.13;;;8.93;;
35699;SDS011;21818;51.078;12.108;2023-06-22T05:36:11;29.52;;;8.00;;
35699;SDS011;21818;51.078;12.108;2023-06-22T05:38:37;23.23;;;7.72;;
35699;SDS011;21818;51.078;12.108;2023-06-22T05:41:03;21.42;;;8.93;;
35699;SDS011;21818;51.078;12.108;2023-06-22T05:43:29;23.38;;;8.05;;
35699;SDS011;21818;51.078;12.108;2023-06-22T05:45:55;32.30;;;8.10;;
35699;SDS011;21818;51.078;12.108;2023-06-22T05:48:20;26.10;;;8.63;;
35699;SDS011;21818;51.078;12.108;2023-06-22T05:50:46;17.45;;;7.13;;
35699;SDS011;21818;51.078;12.108;2023-06-22T05:53:12;21.80;;;7.90;;
35699;SDS011;21818;51.078;12.108;2023-06-22T05:55:38;18.58;;;7.85;;
35699;SDS011;21818;51.078;12.108;2023-06-22T05:58:03;22.23;;;7.13;;
35699;SDS011;21818;51.078;12.108;2023-06-22T06:00:29;17.55;;;6.45;;
35699;SDS011;21818;51.078;12.108;2023-06-22T06:02:55;20.50;;;6.82;;
35699;SDS011;21818;51.078;12.108;2023-06-22T06:05:20;20.60;;;7.45;;
35699;SDS011;21818;51.078;12.108;2023-06-22T06:07:47;22.80;;;7.75;;
35699;SDS011;21818;51.078;12.108;2023-06-22T06:10:13;20.55;;;7.47;;
35699;SDS011;21818;51.078;12.108;2023-06-22T06:12:39;16.85;;;7.45;;
35699;SDS011;21818;51.078;12.108;2023-06-22T06:15:04;17.60;;;7.50;;
35699;SDS011;21818;51.078;12.108;2023-06-22T06:17:30;15.10;;;7.45;;
35699;SDS011;21818;51.078;12.108;2023-06-22T06:19:56;18.83;;;7.38;;
35699;SDS011;21818;51.078;12.108;2023-06-22T06:22:21;22.27;;;7.90;;
35699;SDS011;21818;51.078;12.108;2023-06-22T06:24:48;17.70;;;7.25;;
35699;SDS011;21818;51.078;12.108;2023-06-22T06:27:14;18.25;;;7.57;;
35699;SDS011;21818;51.078;12.108;2023-06-22T06:29:41;12.70;;;6.05;;
35699;SDS011;21818;51.078;12.108;2023-06-22T06:32:06;25.60;;;7.65;;
35699;SDS011;21818;51.078;12.108;2023-06-22T06:34:32;17.63;;;6.97;;
35699;SDS011;21818;51.078;12.108;2023-06-22T06:36:58;15.80;;;6.63;;
35699;SDS011;21818;51.078;12.108;2023-06-22T06:39:23;14.75;;;7.05;;
35699;SDS011;21818;51.078;12.108;2023-06-22T06:41:50;17.45;;;7.03;;
35699;SDS011;21818;51.078;12.108;2023-06-22T06:44:15;17.10;;;6.88;;
35699;SDS011;21818;51.078;12.108;2023-06-22T06:46:41;19.20;;;6.70;;
35699;SDS011;21818;51.078;12.108;2023-06-22T06:49:07;16.50;;;7.00;;
35699;SDS011;21818;51.078;12.108;2023-06-22T06:51:33;21.23;;;7.95;;
35699;SDS011;21818;51.078;12.108;2023-06-22T06:53:58;17.65;;;6.75;;
35699;SDS011;21818;51.078;12.108;2023-06-22T06:56:24;15.55;;;6.63;;
35699;SDS011;21818;51.078;12.108;2023-06-22T06:58:50;18.85;;;7.07;;
35699;SDS011;21818;51.078;12.108;2023-06-22T07:01:16;18.55;;;6.88;;
35699;SDS011;21818;51.078;12.108;2023-06-22T07:03:42;16.85;;;6.70;;
35699;SDS011;21818;51.078;12.108;2023-06-22T07:06:08;16.33;;;7.15;;
35699;SDS011;21818;51.078;12.108;2023-06-22T07:08:33;16.23;;;7.25;;
35699;SDS011;21818;51.078;12.108;2023-06-22T07:11:01;18.73;;;7.05;;
35699;SDS011;21818;51.078;12.108;2023-06-22T07:13:26;17.17;;;6.82;;
35699;SDS011;21818;51.078;12.108;2023-06-22T07:15:52;11.90;;;6.07;;
35699;SDS011;21818;51.078;12.108;2023-06-22T07:18:18;15.32;;;7.43;;
35699;SDS011;21818;51.078;12.108;2023-06-22T07:20:43;12.32;;;6.57;;
35699;SDS011;21818;51.078;12.108;2023-06-22T07:23:09;14.05;;;6.50;;
35699;SDS011;21818;51.078;12.108;2023-06-22T07:25:34;13.57;;;6.40;;
35699;SDS011;21818;51.078;12.108;2023-06-22T07:28:04;13.60;;;6.93;;
35699;SDS011;21818;51.078;12.108;2023-06-22T07:30:31;18.35;;;6.47;;
35699;SDS011;21818;51.078;12.108;2023-06-22T07:32:57;12.00;;;5.80;;
35699;SDS011;21818;51.078;12.108;2023-06-22T07:35:28;16.00;;;6.88;;
35699;SDS011;21818;51.078;12.108;2023-06-22T07:37:54;15.85;;;6.65;;
35699;SDS011;21818;51.078;12.108;2023-06-22T07:40:20;13.73;;;6.50;;
35699;SDS011;21818;51.078;12.108;2023-06-22T07:42:46;11.82;;;6.32;;
35699;SDS011;21818;51.078;12.108;2023-06-22T07:45:13;14.52;;;6.63;;
35699;SDS011;21818;51.078;12.108;2023-06-22T07:47:39;16.52;;;6.30;;
35699;SDS011;21818;51.078;12.108;2023-06-22T07:50:04;11.27;;;5.45;;
35699;SDS011;21818;51.078;12.108;2023-06-22T07:52:30;12.82;;;6.80;;
35699;SDS011;21818;51.078;12.108;2023-06-22T07:54:57;11.95;;;5.70;;
35699;SDS011;21818;51.078;12.108;2023-06-22T07:57:22;17.67;;;6.00;;
35699;SDS011;21818;51.078;12.108;2023-06-22T07:59:56;14.60;;;6.63;;
35699;SDS011;21818;51.078;12.108;2023-06-22T08:02:22;14.10;;;6.32;;
35699;SDS011;21818;51.078;12.108;2023-06-22T08:04:48;14.63;;;6.97;;
35699;SDS011;21818;51.078;12.108;2023-06-22T08:07:13;16.08;;;6.15;;
35699;SDS011;21818;51.078;12.108;2023-06-22T08:09:39;12.52;;;5.43;;
35699;SDS011;21818;51.078;12.108;2023-06-22T08:12:12;18.17;;;6.18;;
35699;SDS011;21818;51.078;12.108;2023-06-22T08:14:38;11.80;;;5.85;;
35699;SDS011;21818;51.078;12.108;2023-06-22T08:17:04;12.80;;;5.78;;
35699;SDS011;21818;51.078;12.108;2023-06-22T08:19:30;12.88;;;6.45;;
35699;SDS011;21818;51.078;12.108;2023-06-22T08:21:55;13.70;;;5.85;;
35699;SDS011;21818;51.078;12.108;2023-06-22T08:24:22;16.38;;;6.28;;
35699;SDS011;21818;51.078;12.108;2023-06-22T08:26:51;10.15;;;5.65;;
35699;SDS011;21818;51.078;12.108;2023-06-22T08:29:17;11.88;;;5.85;;
35699;SDS011;21818;51.078;12.108;2023-06-22T08:31:42;12.88;;;6.03;;
35699;SDS011;21818;51.078;12.108;2023-06-22T08:34:08;11.68;;;6.07;;
35699;SDS011;21818;51.078;12.108;2023-06-22T08:36:34;11.32;;;5.88;;
35699;SDS011;21818;51.078;12.108;2023-06-22T08:39:06;16.00;;;6.28;;
35699;SDS011;21818;51.078;12.108;2023-06-22T08:41:33;17.08;;;6.63;;
35699;SDS011;21818;51.078;12.108;2023-06-22T08:43:58;10.07;;;5.35;;
35699;SDS011;21818;51.078;12.108;2023-06-22T08:46:24;12.15;;;5.95;;
35699;SDS011;21818;51.078;12.108;2023-06-22T08:48:55;15.13;;;6.10;;
35699;SDS011;21818;51.078;12.108;2023-06-22T08:51:22;11.85;;;6.45;;
35699;SDS011;21818;51.078;12.108;2023-06-22T08:53:48;11.43;;;5.68;;
35699;SDS011;21818;51.078;12.108;2023-06-22T08:56:13;11.25;;;5.32;;
35699;SDS011;21818;51.078;12.108;2023-06-22T08:58:39;13.98;;;5.80;;
35699;SDS011;21818;51.078;12.108;2023-06-22T09:01:05;12.15;;;5.85;;
35699;SDS011;21818;51.078;12.108;2023-06-22T09:03:30;12.85;;;6.07;;
35699;SDS011;21818;51.078;12.108;2023-06-22T09:05:57;15.18;;;6.20;;
35699;SDS011;21818;51.078;12.108;2023-06-22T09:08:23;12.57;;;5.82;;
35699;SDS011;21818;51.078;12.108;2023-06-22T09:10:49;11.23;;;5.70;;
35699;SDS011;21818;51.078;12.108;2023-06-22T09:13:14;11.70;;;5.63;;
35699;SDS011;21818;51.078;12.108;2023-06-22T09:15:40;13.00;;;5.82;;
35699;SDS011;21818;51.078;12.108;2023-06-22T09:18:05;17.50;;;6.35;;
35699;SDS011;21818;51.078;12.108;2023-06-22T09:20:31;11.07;;;5.80;;
35699;SDS011;21818;51.078;12.108;2023-06-22T09:22:56;10.13;;;5.07;;
35699;SDS011;21818;51.078;12.108;2023-06-22T09:25:22;10.80;;;6.03;;
35699;SDS011;21818;51.078;12.108;2023-06-22T09:27:48;10.57;;;5.53;;
35699;SDS011;21818;51.078;12.108;2023-06-22T09:30:14;11.20;;;5.57;;
35699;SDS011;21818;51.078;12.108;2023-06-22T09:32:39;10.43;;;5.07;;
35699;SDS011;21818;51.078;12.108;2023-06-22T09:35:05;10.18;;;5.55;;
35699;SDS011;21818;51.078;12.108;2023-06-22T09:37:31;10.88;;;5.35;;
35699;SDS011;21818;51.078;12.108;2023-06-22T09:39:57;11.13;;;5.18;;
35699;SDS011;21818;51.078;12.108;2023-06-22T09:42:23;10.20;;;5.15;;
35699;SDS011;21818;51.078;12.108;2023-06-22T09:44:48;9.93;;;4.82;;
35699;SDS011;21818;51.078;12.108;2023-06-22T09:47:14;9.30;;;5.35;;
35699;SDS011;21818;51.078;12.108;2023-06-22T09:49:39;8.98;;;5.10;;
35699;SDS011;21818;51.078;12.108;2023-06-22T09:52:05;10.80;;;5.03;;
35699;SDS011;21818;51.078;12.108;2023-06-22T09:54:31;12.10;;;5.40;;
35699;SDS011;21818;51.078;12.108;2023-06-22T09:56:56;9.13;;;5.63;;
35699;SDS011;21818;51.078;12.108;2023-06-22T09:59:22;14.00;;;5.75;;
35699;SDS011;21818;51.078;12.108;2023-06-22T10:01:47;9.38;;;5.65;;
35699;SDS011;21818;51.078;12.108;2023-06-22T10:04:13;13.68;;;5.82;;
35699;SDS011;21818;51.078;12.108;2023-06-22T10:06:38;9.65;;;5.47;;
35699;SDS011;21818;51.078;12.108;2023-06-22T10:09:05;9.73;;;5.28;;
35699;SDS011;21818;51.078;12.108;2023-06-22T10:11:32;11.43;;;5.18;;
35699;SDS011;21818;51.078;12.108;2023-06-22T10:13:59;11.23;;;5.47;;
35699;SDS011;21818;51.078;12.108;2023-06-22T10:16:30;9.07;;;5.30;;
35699;SDS011;21818;51.078;12.108;2023-06-22T10:18:56;7.82;;;4.90;;
35699;SDS011;21818;51.078;12.108;2023-06-22T10:21:21;12.40;;;5.80;;
35699;SDS011;21818;51.078;12.108;2023-06-22T10:23:47;9.05;;;5.65;;
35699;SDS011;21818;51.078;12.108;2023-06-22T10:26:12;10.52;;;5.88;;
35699;SDS011;21818;51.078;12.108;2023-06-22T10:28:38;10.70;;;5.28;;
35699;SDS011;21818;51.078;12.108;2023-06-22T10:31:03;11.30;;;5.30;;
35699;SDS011;21818;51.078;12.108;2023-06-22T10:33:29;7.35;;;4.78;;
35699;SDS011;21818;51.078;12.108;2023-06-22T10:35:54;10.50;;;5.30;;
35699;SDS011;21818;51.078;12.108;2023-06-22T10:38:20;11.15;;;6.32;;
35699;SDS011;21818;51.078;12.108;2023-06-22T10:40:46;9.90;;;5.53;;
35699;SDS011;21818;51.078;12.108;2023-06-22T10:43:12;9.18;;;5.25;;
35699;SDS011;21818;51.078;12.108;2023-06-22T10:45:38;11.77;;;5.70;;
35699;SDS011;21818;51.078;12.108;2023-06-22T10:48:04;8.75;;;5.22;;
35699;SDS011;21818;51.078;12.108;2023-06-22T10:50:29;11.23;;;5.15;;
35699;SDS011;21818;51.078;12.108;2023-06-22T10:52:55;7.43;;;4.57;;
35699;SDS011;21818;51.078;12.108;2023-06-22T10:55:20;11.43;;;5.55;;
35699;SDS011;21818;51.078;12.108;2023-06-22T10:57:46;8.38;;;4.65;;
35699;SDS011;21818;51.078;12.108;2023-06-22T11:00:12;11.38;;;5.35;;
35699;SDS011;21818;51.078;12.108;2023-06-22T11:02:39;9.13;;;4.72;;
35699;SDS011;21818;51.078;12.108;2023-06-22T11:05:05;9.65;;;5.35;;
35699;SDS011;21818;51.078;12.108;2023-06-22T11:07:31;9.05;;;5.13;;
35699;SDS011;21818;51.078;12.108;2023-06-22T11:09:57;7.70;;;4.75;;
35699;SDS011;21818;51.078;12.108;2023-06-22T11:12:23;13.02;;;5.47;;
35699;SDS011;21818;51.078;12.108;2023-06-22T11:14:48;9.32;;;5.18;;
35699;SDS011;21818;51.078;12.108;2023-06-22T11:17:16;8.68;;;5.00;;
35699;SDS011;21818;51.078;12.108;2023-06-22T11:19:42;9.35;;;5.15;;
35699;SDS011;21818;51.078;12.108;2023-06-22T11:22:08;10.57;;;5.00;;
35699;SDS011;21818;51.078;12.108;2023-06-22T11:24:34;9.93;;;5.32;;
35699;SDS011;21818;51.078;12.108;2023-06-22T11:26:59;10.02;;;5.25;;
35699;SDS011;21818;51.078;12.108;2023-06-22T11:29:25;8.25;;;4.80;;
35699;SDS011;21818;51.078;12.108;2023-06-22T11:31:50;9.93;;;5.22;;
35699;SDS011;21818;51.078;12.108;2023-06-22T11:34:16;10.93;;;5.25;;
35699;SDS011;21818;51.078;12.108;2023-06-22T11:36:42;9.68;;;4.65;;
35699;SDS011;21818;51.078;12.108;2023-06-22T11:39:09;7.97;;;4.72;;
35699;SDS011;21818;51.078;12.108;2023-06-22T11:41:34;11.80;;;5.15;;
35699;SDS011;21818;51.078;12.108;2023-06-22T11:44:00;9.25;;;5.50;;
35699;SDS011;21818;51.078;12.108;2023-06-22T11:46:26;9.75;;;4.97;;
35699;SDS011;21818;51.078;12.108;2023-06-22T11:48:51;8.65;;;4.97;;
35699;SDS011;21818;51.078;12.108;2023-06-22T11:51:17;7.88;;;4.85;;
35699;SDS011;21818;51.078;12.108;2023-06-22T11:53:42;7.30;;;4.38;;
35699;SDS011;21818;51.078;12.108;2023-06-22T11:56:08;9.35;;;5.15;;
35699;SDS011;21818;51.078;12.108;2023-06-22T11:58:33;6.95;;;4.13;;
35699;SDS011;21818;51.078;12.108;2023-06-22T12:00:59;7.45;;;5.10;;
35699;SDS011;21818;51.078;12.108;2023-06-22T12:03:24;7.70;;;5.05;;
35699;SDS011;21818;51.078;12.108;2023-06-22T12:05:50;7.65;;;4.75;;
35699;SDS011;21818;51.078;12.108;2023-06-22T12:08:17;8.55;;;5.07;;
35699;SDS011;21818;51.078;12.108;2023-06-22T12:10:43;10.63;;;5.18;;
35699;SDS011;21818;51.078;12.108;2023-06-22T12:13:09;11.50;;;4.88;;
35699;SDS011;21818;51.078;12.108;2023-06-22T12:15:34;8.52;;;4.60;;
35699;SDS011;21818;51.078;12.108;2023-06-22T12:18:00;11.15;;;5.22;;
35699;SDS011;21818;51.078;12.108;2023-06-22T12:20:26;8.25;;;4.57;;
35699;SDS011;21818;51.078;12.108;2023-06-22T12:22:52;9.57;;;4.82;;
35699;SDS011;21818;51.078;12.108;2023-06-22T12:25:19;6.82;;;4.72;;
35699;SDS011;21818;51.078;12.108;2023-06-22T12:27:44;9.55;;;4.97;;
35699;SDS011;21818;51.078;12.108;2023-06-22T12:30:10;10.00;;;5.05;;
35699;SDS011;21818;51.078;12.108;2023-06-22T12:32:35;9.35;;;4.97;;
35699;SDS011;21818;51.078;12.108;2023-06-22T12:35:01;8.63;;;5.22;;
35699;SDS011;21818;51.078;12.108;2023-06-22T12:37:26;8.32;;;5.05;;
35699;SDS011;21818;51.078;12.108;2023-06-22T12:39:53;9.25;;;4.82;;
35699;SDS011;21818;51.078;12.108;2023-06-22T12:42:19;8.38;;;4.65;;
35699;SDS011;21818;51.078;12.108;2023-06-22T12:44:46;8.43;;;4.95;;
35699;SDS011;21818;51.078;12.108;2023-06-22T12:47:11;7.80;;;4.70;;
35699;SDS011;21818;51.078;12.108;2023-06-22T12:49:38;10.43;;;4.25;;
35699;SDS011;21818;51.078;12.108;2023-06-22T12:52:04;8.52;;;4.90;;
35699;SDS011;21818;51.078;12.108;2023-06-22T12:54:34;11.85;;;4.80;;
35699;SDS011;21818;51.078;12.108;2023-06-22T12:56:59;8.30;;;4.28;;
35699;SDS011;21818;51.078;12.108;2023-06-22T12:59:25;7.57;;;4.50;;
35699;SDS011;21818;51.078;12.108;2023-06-22T13:01:50;10.80;;;4.30;;
35699;SDS011;21818;51.078;12.108;2023-06-22T13:04:16;8.85;;;4.65;;
35699;SDS011;21818;51.078;12.108;2023-06-22T13:06:43;6.55;;;4.57;;
35699;SDS011;21818;51.078;12.108;2023-06-22T13:09:12;9.23;;;4.82;;
35699;SDS011;21818;51.078;12.108;2023-06-22T13:11:38;7.72;;;4.97;;
35699;SDS011;21818;51.078;12.108;2023-06-22T13:14:03;7.93;;;4.40;;
35699;SDS011;21818;51.078;12.108;2023-06-22T13:16:29;6.97;;;4.43;;
35699;SDS011;21818;51.078;12.108;2023-06-22T13:18:55;8.10;;;4.28;;
35699;SDS011;21818;51.078;12.108;2023-06-22T13:21:20;7.80;;;4.53;;
35699;SDS011;21818;51.078;12.108;2023-06-22T13:23:46;7.63;;;4.45;;
35699;SDS011;21818;51.078;12.108;2023-06-22T13:26:11;6.28;;;4.65;;
35699;SDS011;21818;51.078;12.108;2023-06-22T13:28:37;10.85;;;5.50;;
35699;SDS011;21818;51.078;12.108;2023-06-22T13:31:02;7.63;;;4.80;;
35699;SDS011;21818;51.078;12.108;2023-06-22T13:33:28;9.95;;;4.32;;
35699;SDS011;21818;51.078;12.108;2023-06-22T13:35:53;9.07;;;4.38;;
35699;SDS011;21818;51.078;12.108;2023-06-22T13:38:19;6.45;;;3.97;;
35699;SDS011;21818;51.078;12.108;2023-06-22T13:40:44;7.93;;;4.60;;
35699;SDS011;21818;51.078;12.108;2023-06-22T13:43:10;6.60;;;4.28;;
35699;SDS011;21818;51.078;12.108;2023-06-22T13:45:36;7.88;;;4.22;;
35699;SDS011;21818;51.078;12.108;2023-06-22T13:48:01;8.15;;;4.50;;
35699;SDS011;21818;51.078;12.108;2023-06-22T13:50:27;6.57;;;4.00;;
35699;SDS011;21818;51.078;12.108;2023-06-22T13:52:54;6.60;;;4.05;;
35699;SDS011;21818;51.078;12.108;2023-06-22T13:55:19;8.68;;;4.45;;
35699;SDS011;21818;51.078;12.108;2023-06-22T13:57:46;7.13;;;4.15;;
35699;SDS011;21818;51.078;12.108;2023-06-22T14:00:11;7.72;;;4.40;;
35699;SDS011;21818;51.078;12.108;2023-06-22T14:02:37;9.43;;;4.55;;
35699;SDS011;21818;51.078;12.108;2023-06-22T14:05:04;5.75;;;3.78;;
35699;SDS011;21818;51.078;12.108;2023-06-22T14:07:30;6.60;;;4.30;;
35699;SDS011;21818;51.078;12.108;2023-06-22T14:09:56;5.57;;;3.58;;
35699;SDS011;21818;51.078;12.108;2023-06-22T14:12:22;6.78;;;3.97;;
35699;SDS011;21818;51.078;12.108;2023-06-22T14:14:48;7.93;;;4.50;;
35699;SDS011;21818;51.078;12.108;2023-06-22T14:17:14;7.03;;;4.25;;
35699;SDS011;21818;51.078;12.108;2023-06-22T14:19:39;6.47;;;3.58;;
35699;SDS011;21818;51.078;12.108;2023-06-22T14:22:05;7.25;;;3.97;;
35699;SDS011;21818;51.078;12.108;2023-06-22T14:24:30;6.00;;;4.10;;
35699;SDS011;21818;51.078;12.108;2023-06-22T14:26:56;7.40;;;4.18;;
35699;SDS011;21818;51.078;12.108;2023-06-22T14:29:22;6.38;;;3.78;;
35699;SDS011;21818;51.078;12.108;2023-06-22T14:31:48;5.20;;;3.97;;
35699;SDS011;21818;51.078;12.108;2023-06-22T14:34:14;6.25;;;4.03;;